sensor_id;sensor_type;location;lat;lon;timestamp;temperature;humidity
19389;DHT22;9830;41.876;23.474;2022-12-13T00:00:10;2.90;99.90
19389;DHT22;9830;41.876;23.474;2022-12-13T00:02:40;2.80;99.90
19389;DHT22;9830;41.876;23.474;2022-12-13T00:05:06;2.70;99.90
19389;DHT22;9830;41.876;23.474;2022-12-13T00:07:33;2.60;99.90
19389;DHT22;9830;41.876;23.474;2022-12-13T00:09:59;2.50;99.90
19389;DHT22;9830;41.876;23.474;2022-12-13T00:12:25;2.50;99.90
19389;DHT22;9830;41.876;23.474;2022-12-13T00:14:50;2.40;99.90
19389;DHT22;9830;41.876;23.474;2022-12-13T00:17:16;2.30;99.90
19389;DHT22;9830;41.876;23.474;2022-12-13T00:19:42;2.30;99.90
19389;DHT22;9830;41.876;23.474;2022-12-13T00:22:07;2.30;99.90
19389;DHT22;9830;41.876;23.474;2022-12-13T00:24:33;2.20;99.90
19389;DHT22;9830;41.876;23.474;2022-12-13T00:26:59;2.20;99.90
19389;DHT22;9830;41.876;23.474;2022-12-13T00:29:24;2.20;99.90
19389;DHT22;9830;41.876;23.474;2022-12-13T00:31:50;2.30;99.90
19389;DHT22;9830;41.876;23.474;2022-12-13T00:34:17;2.20;99.90
19389;DHT22;9830;41.876;23.474;2022-12-13T00:36:43;2.20;99.90
19389;DHT22;9830;41.876;23.474;2022-12-13T00:39:09;2.20;99.90
19389;DHT22;9830;41.876;23.474;2022-12-13T00:41:38;2.10;99.90
19389;DHT22;9830;41.876;23.474;2022-12-13T00:44:04;2.20;99.90
19389;DHT22;9830;41.876;23.474;2022-12-13T00:46:30;2.10;99.90
19389;DHT22;9830;41.876;23.474;2022-12-13T00:48:58;2.10;99.90
19389;DHT22;9830;41.876;23.474;2022-12-13T00:51:26;2.00;99.90
19389;DHT22;9830;41.876;23.474;2022-12-13T00:53:53;2.00;99.90
19389;DHT22;9830;41.876;23.474;2022-12-13T00:56:23;1.90;99.90
19389;DHT22;9830;41.876;23.474;2022-12-13T00:58:50;1.90;99.90
19389;DHT22;9830;41.876;23.474;2022-12-13T01:01:18;1.80;99.90
19389;DHT22;9830;41.876;23.474;2022-12-13T01:03:44;1.70;99.90
19389;DHT22;9830;41.876;23.474;2022-12-13T01:06:13;1.70;99.90
19389;DHT22;9830;41.876;23.474;2022-12-13T01:08:39;1.70;99.90
19389;DHT22;9830;41.876;23.474;2022-12-13T01:11:05;1.70;99.90
19389;DHT22;9830;41.876;23.474;2022-12-13T01:13:32;1.70;99.90
19389;DHT22;9830;41.876;23.474;2022-12-13T01:16:00;1.70;99.90
19389;DHT22;9830;41.876;23.474;2022-12-13T01:18:26;1.70;99.90
19389;DHT22;9830;41.876;23.474;2022-12-13T01:21:11;1.80;99.90
19389;DHT22;9830;41.876;23.474;2022-12-13T01:23:37;1.70;99.90
19389;DHT22;9830;41.876;23.474;2022-12-13T01:26:04;1.70;99.90
19389;DHT22;9830;41.876;23.474;2022-12-13T01:28:30;1.70;99.90
19389;DHT22;9830;41.876;23.474;2022-12-13T01:30:58;1.70;99.90
19389;DHT22;9830;41.876;23.474;2022-12-13T01:33:24;1.60;99.90
19389;DHT22;9830;41.876;23.474;2022-12-13T01:35:50;1.60;99.90
19389;DHT22;9830;41.876;23.474;2022-12-13T01:38:16;1.50;99.90
19389;DHT22;9830;41.876;23.474;2022-12-13T01:40:46;1.50;99.90
19389;DHT22;9830;41.876;23.474;2022-12-13T01:43:13;1.50;99.90
19389;DHT22;9830;41.876;23.474;2022-12-13T01:45:39;1.50;99.90
19389;DHT22;9830;41.876;23.474;2022-12-13T01:48:17;1.40;99.90
19389;DHT22;9830;41.876;23.474;2022-12-13T01:50:47;1.50;99.90
19389;DHT22;9830;41.876;23.474;2022-12-13T01:53:18;1.50;99.90
19389;DHT22;9830;41.876;23.474;2022-12-13T01:55:47;1.50;99.90
19389;DHT22;9830;41.876;23.474;2022-12-13T01:58:15;1.60;99.90
19389;DHT22;9830;41.876;23.474;2022-12-13T02:00:42;1.60;99.90
19389;DHT22;9830;41.876;23.474;2022-12-13T02:03:09;1.70;99.90
19389;DHT22;9830;41.876;23.474;2022-12-13T02:05:40;1.70;99.90
19389;DHT22;9830;41.876;23.474;2022-12-13T02:08:08;1.70;99.90
19389;DHT22;9830;41.876;23.474;2022-12-13T02:10:35;1.70;99.90
19389;DHT22;9830;41.876;23.474;2022-12-13T02:13:02;1.70;99.90
19389;DHT22;9830;41.876;23.474;2022-12-13T02:15:43;1.70;99.90
19389;DHT22;9830;41.876;23.474;2022-12-13T02:21:10;1.60;99.90
19389;DHT22;9830;41.876;23.474;2022-12-13T02:24:23;1.60;99.90
19389;DHT22;9830;41.876;23.474;2022-12-13T02:32:44;1.40;99.90
19389;DHT22;9830;41.876;23.474;2022-12-13T02:35:36;1.40;99.90
19389;DHT22;9830;41.876;23.474;2022-12-13T02:38:22;1.40;99.90
19389;DHT22;9830;41.876;23.474;2022-12-13T02:43:30;1.40;99.90
19389;DHT22;9830;41.876;23.474;2022-12-13T02:46:00;1.30;99.90
19389;DHT22;9830;41.876;23.474;2022-12-13T02:48:33;1.30;99.90
19389;DHT22;9830;41.876;23.474;2022-12-13T02:51:01;1.20;99.90
19389;DHT22;9830;41.876;23.474;2022-12-13T02:53:28;1.20;99.90
19389;DHT22;9830;41.876;23.474;2022-12-13T02:55:55;1.20;99.90
19389;DHT22;9830;41.876;23.474;2022-12-13T02:58:23;1.20;99.90
19389;DHT22;9830;41.876;23.474;2022-12-13T03:09:15;1.10;99.90
19389;DHT22;9830;41.876;23.474;2022-12-13T03:11:52;1.20;99.90
19389;DHT22;9830;41.876;23.474;2022-12-13T03:14:44;1.20;99.90
19389;DHT22;9830;41.876;23.474;2022-12-13T03:17:15;1.10;99.90
19389;DHT22;9830;41.876;23.474;2022-12-13T03:19:43;1.20;99.90
19389;DHT22;9830;41.876;23.474;2022-12-13T03:22:09;1.20;99.90
19389;DHT22;9830;41.876;23.474;2022-12-13T03:24:35;1.30;99.90
19389;DHT22;9830;41.876;23.474;2022-12-13T03:27:01;1.30;99.90
19389;DHT22;9830;41.876;23.474;2022-12-13T03:29:26;1.40;99.90
19389;DHT22;9830;41.876;23.474;2022-12-13T03:31:53;1.70;99.90
19389;DHT22;9830;41.876;23.474;2022-12-13T03:34:18;1.80;99.90
19389;DHT22;9830;41.876;23.474;2022-12-13T03:36:44;1.60;99.90
19389;DHT22;9830;41.876;23.474;2022-12-13T03:39:10;1.50;99.90
19389;DHT22;9830;41.876;23.474;2022-12-13T03:41:36;1.40;99.90
19389;DHT22;9830;41.876;23.474;2022-12-13T03:44:04;1.30;99.90
19389;DHT22;9830;41.876;23.474;2022-12-13T03:46:30;1.30;99.90
19389;DHT22;9830;41.876;23.474;2022-12-13T03:48:56;1.20;99.90
19389;DHT22;9830;41.876;23.474;2022-12-13T03:51:22;1.20;99.90
19389;DHT22;9830;41.876;23.474;2022-12-13T03:53:47;1.10;99.90
19389;DHT22;9830;41.876;23.474;2022-12-13T03:56:13;1.10;99.90
19389;DHT22;9830;41.876;23.474;2022-12-13T03:58:39;1.10;99.90
19389;DHT22;9830;41.876;23.474;2022-12-13T04:01:08;1.10;99.90
19389;DHT22;9830;41.876;23.474;2022-12-13T04:03:35;1.00;99.90
19389;DHT22;9830;41.876;23.474;2022-12-13T04:06:02;1.00;99.90
19389;DHT22;9830;41.876;23.474;2022-12-13T04:08:27;1.00;99.90
19389;DHT22;9830;41.876;23.474;2022-12-13T04:10:53;1.10;99.90
19389;DHT22;9830;41.876;23.474;2022-12-13T04:13:18;1.10;99.90
19389;DHT22;9830;41.876;23.474;2022-12-13T04:16:01;1.00;99.90
19389;DHT22;9830;41.876;23.474;2022-12-13T04:18:27;1.00;99.90
19389;DHT22;9830;41.876;23.474;2022-12-13T04:20:52;0.90;99.90
19389;DHT22;9830;41.876;23.474;2022-12-13T04:23:18;0.80;99.90
19389;DHT22;9830;41.876;23.474;2022-12-13T04:25:44;0.80;99.90
19389;DHT22;9830;41.876;23.474;2022-12-13T04:28:10;0.70;99.90
19389;DHT22;9830;41.876;23.474;2022-12-13T04:30:36;0.80;99.90
19389;DHT22;9830;41.876;23.474;2022-12-13T04:33:02;0.70;99.90
19389;DHT22;9830;41.876;23.474;2022-12-13T04:35:28;0.70;99.90
19389;DHT22;9830;41.876;23.474;2022-12-13T04:37:54;0.70;99.90
19389;DHT22;9830;41.876;23.474;2022-12-13T04:40:21;0.70;99.90
19389;DHT22;9830;41.876;23.474;2022-12-13T04:42:47;0.70;99.90
19389;DHT22;9830;41.876;23.474;2022-12-13T04:45:16;0.90;99.90
19389;DHT22;9830;41.876;23.474;2022-12-13T04:47:42;1.10;99.90
19389;DHT22;9830;41.876;23.474;2022-12-13T04:50:09;1.10;99.90
19389;DHT22;9830;41.876;23.474;2022-12-13T04:52:35;1.20;99.90
19389;DHT22;9830;41.876;23.474;2022-12-13T04:55:02;1.20;99.90
19389;DHT22;9830;41.876;23.474;2022-12-13T04:57:27;1.20;99.90
19389;DHT22;9830;41.876;23.474;2022-12-13T04:59:53;1.30;99.90
19389;DHT22;9830;41.876;23.474;2022-12-13T05:02:19;1.20;99.90
19389;DHT22;9830;41.876;23.474;2022-12-13T05:04:45;1.20;99.90
19389;DHT22;9830;41.876;23.474;2022-12-13T05:07:11;1.20;99.90
19389;DHT22;9830;41.876;23.474;2022-12-13T05:09:36;1.10;99.90
19389;DHT22;9830;41.876;23.474;2022-12-13T05:12:02;1.10;99.90
19389;DHT22;9830;41.876;23.474;2022-12-13T05:14:32;1.00;99.90
19389;DHT22;9830;41.876;23.474;2022-12-13T05:17:01;0.80;99.90
19389;DHT22;9830;41.876;23.474;2022-12-13T05:19:27;0.80;99.90
19389;DHT22;9830;41.876;23.474;2022-12-13T05:21:53;0.70;99.90
19389;DHT22;9830;41.876;23.474;2022-12-13T05:24:18;0.70;99.90
19389;DHT22;9830;41.876;23.474;2022-12-13T05:26:44;0.60;99.90
19389;DHT22;9830;41.876;23.474;2022-12-13T05:29:10;0.50;99.90
19389;DHT22;9830;41.876;23.474;2022-12-13T05:31:35;0.50;99.90
19389;DHT22;9830;41.876;23.474;2022-12-13T05:34:01;0.50;99.90
19389;DHT22;9830;41.876;23.474;2022-12-13T05:36:27;0.40;99.90
19389;DHT22;9830;41.876;23.474;2022-12-13T05:38:53;0.40;99.90
19389;DHT22;9830;41.876;23.474;2022-12-13T05:41:21;0.50;99.90
19389;DHT22;9830;41.876;23.474;2022-12-13T05:43:49;0.40;99.90
19389;DHT22;9830;41.876;23.474;2022-12-13T05:46:15;0.40;99.90
19389;DHT22;9830;41.876;23.474;2022-12-13T05:48:41;0.40;99.90
19389;DHT22;9830;41.876;23.474;2022-12-13T05:51:07;0.30;99.90
19389;DHT22;9830;41.876;23.474;2022-12-13T05:53:33;0.30;99.90
19389;DHT22;9830;41.876;23.474;2022-12-13T05:56:00;0.20;99.90
19389;DHT22;9830;41.876;23.474;2022-12-13T05:58:25;0.20;99.90
19389;DHT22;9830;41.876;23.474;2022-12-13T06:00:51;0.20;99.90
19389;DHT22;9830;41.876;23.474;2022-12-13T06:03:17;0.30;99.90
19389;DHT22;9830;41.876;23.474;2022-12-13T06:05:42;0.40;99.90
19389;DHT22;9830;41.876;23.474;2022-12-13T06:08:09;0.40;99.90
19389;DHT22;9830;41.876;23.474;2022-12-13T06:10:35;0.50;99.90
19389;DHT22;9830;41.876;23.474;2022-12-13T06:13:04;0.50;99.90
19389;DHT22;9830;41.876;23.474;2022-12-13T06:15:31;0.60;99.90
19389;DHT22;9830;41.876;23.474;2022-12-13T06:17:58;0.70;99.90
19389;DHT22;9830;41.876;23.474;2022-12-13T06:20:24;0.70;99.90
19389;DHT22;9830;41.876;23.474;2022-12-13T06:22:51;0.80;99.90
19389;DHT22;9830;41.876;23.474;2022-12-13T06:25:17;0.70;99.90
19389;DHT22;9830;41.876;23.474;2022-12-13T06:27:42;0.70;99.90
19389;DHT22;9830;41.876;23.474;2022-12-13T06:30:08;0.60;99.90
19389;DHT22;9830;41.876;23.474;2022-12-13T06:32:34;0.60;99.90
19389;DHT22;9830;41.876;23.474;2022-12-13T06:35:01;0.70;99.90
19389;DHT22;9830;41.876;23.474;2022-12-13T06:37:27;0.70;99.90
19389;DHT22;9830;41.876;23.474;2022-12-13T06:39:52;0.90;99.90
19389;DHT22;9830;41.876;23.474;2022-12-13T06:42:18;1.00;99.90
19389;DHT22;9830;41.876;23.474;2022-12-13T06:44:44;1.10;99.90
19389;DHT22;9830;41.876;23.474;2022-12-13T06:47:10;1.10;99.90
19389;DHT22;9830;41.876;23.474;2022-12-13T06:49:36;1.10;99.90
19389;DHT22;9830;41.876;23.474;2022-12-13T06:52:02;1.10;99.90
19389;DHT22;9830;41.876;23.474;2022-12-13T06:54:28;1.20;99.90
19389;DHT22;9830;41.876;23.474;2022-12-13T06:56:54;1.20;99.90
19389;DHT22;9830;41.876;23.474;2022-12-13T06:59:19;1.20;99.90
19389;DHT22;9830;41.876;23.474;2022-12-13T07:01:45;1.20;99.90
19389;DHT22;9830;41.876;23.474;2022-12-13T07:04:11;1.20;99.90
19389;DHT22;9830;41.876;23.474;2022-12-13T07:06:37;1.20;99.90
19389;DHT22;9830;41.876;23.474;2022-12-13T07:09:02;1.20;99.90
19389;DHT22;9830;41.876;23.474;2022-12-13T07:11:30;1.20;99.90
19389;DHT22;9830;41.876;23.474;2022-12-13T07:13:56;1.40;99.90
19389;DHT22;9830;41.876;23.474;2022-12-13T07:16:22;1.40;99.90
19389;DHT22;9830;41.876;23.474;2022-12-13T07:18:59;1.30;99.90
19389;DHT22;9830;41.876;23.474;2022-12-13T07:21:25;1.40;99.90
19389;DHT22;9830;41.876;23.474;2022-12-13T07:23:51;1.40;99.90
19389;DHT22;9830;41.876;23.474;2022-12-13T07:26:18;1.60;99.90
19389;DHT22;9830;41.876;23.474;2022-12-13T07:28:44;1.90;99.90
19389;DHT22;9830;41.876;23.474;2022-12-13T07:31:11;2.10;99.90
19389;DHT22;9830;41.876;23.474;2022-12-13T07:33:37;2.00;99.90
19389;DHT22;9830;41.876;23.474;2022-12-13T07:36:11;1.90;99.90
19389;DHT22;9830;41.876;23.474;2022-12-13T07:38:38;1.90;99.90
19389;DHT22;9830;41.876;23.474;2022-12-13T07:41:04;1.90;99.90
19389;DHT22;9830;41.876;23.474;2022-12-13T07:43:31;2.10;99.90
19389;DHT22;9830;41.876;23.474;2022-12-13T07:46:01;2.10;99.90
19389;DHT22;9830;41.876;23.474;2022-12-13T07:48:27;2.20;99.90
19389;DHT22;9830;41.876;23.474;2022-12-13T07:50:58;2.20;99.90
19389;DHT22;9830;41.876;23.474;2022-12-13T07:53:24;2.10;99.90
19389;DHT22;9830;41.876;23.474;2022-12-13T07:55:50;2.30;99.90
19389;DHT22;9830;41.876;23.474;2022-12-13T07:58:15;2.40;99.90
19389;DHT22;9830;41.876;23.474;2022-12-13T08:00:43;2.50;99.90
19389;DHT22;9830;41.876;23.474;2022-12-13T08:03:09;2.40;99.90
19389;DHT22;9830;41.876;23.474;2022-12-13T08:05:35;2.40;99.90
19389;DHT22;9830;41.876;23.474;2022-12-13T08:08:03;2.50;99.90
19389;DHT22;9830;41.876;23.474;2022-12-13T08:10:29;2.60;99.90
19389;DHT22;9830;41.876;23.474;2022-12-13T08:12:55;2.70;99.90
19389;DHT22;9830;41.876;23.474;2022-12-13T08:15:21;2.60;99.90
19389;DHT22;9830;41.876;23.474;2022-12-13T08:17:47;2.50;99.90
19389;DHT22;9830;41.876;23.474;2022-12-13T08:20:13;2.30;99.90
19389;DHT22;9830;41.876;23.474;2022-12-13T08:22:39;2.50;99.90
19389;DHT22;9830;41.876;23.474;2022-12-13T08:25:06;2.70;99.90
19389;DHT22;9830;41.876;23.474;2022-12-13T08:27:32;3.00;99.90
19389;DHT22;9830;41.876;23.474;2022-12-13T08:29:58;3.20;99.90
19389;DHT22;9830;41.876;23.474;2022-12-13T08:32:24;3.00;99.90
19389;DHT22;9830;41.876;23.474;2022-12-13T08:34:50;3.00;99.90
19389;DHT22;9830;41.876;23.474;2022-12-13T08:37:16;3.10;99.90
19389;DHT22;9830;41.876;23.474;2022-12-13T08:39:43;3.60;99.90
19389;DHT22;9830;41.876;23.474;2022-12-13T08:42:16;3.70;99.90
19389;DHT22;9830;41.876;23.474;2022-12-13T08:44:42;4.10;99.90
19389;DHT22;9830;41.876;23.474;2022-12-13T08:47:08;4.90;99.90
19389;DHT22;9830;41.876;23.474;2022-12-13T08:49:34;5.50;99.90
19389;DHT22;9830;41.876;23.474;2022-12-13T08:51:59;5.90;99.90
19389;DHT22;9830;41.876;23.474;2022-12-13T08:54:25;6.10;99.90
19389;DHT22;9830;41.876;23.474;2022-12-13T08:56:51;5.30;99.90
19389;DHT22;9830;41.876;23.474;2022-12-13T08:59:17;5.40;99.90
19389;DHT22;9830;41.876;23.474;2022-12-13T09:01:43;5.70;99.90
19389;DHT22;9830;41.876;23.474;2022-12-13T09:04:09;5.60;99.90
19389;DHT22;9830;41.876;23.474;2022-12-13T09:06:34;5.90;99.90
19389;DHT22;9830;41.876;23.474;2022-12-13T09:09:00;6.40;99.90
19389;DHT22;9830;41.876;23.474;2022-12-13T09:11:26;6.80;99.00
19389;DHT22;9830;41.876;23.474;2022-12-13T09:13:51;7.60;98.20
19389;DHT22;9830;41.876;23.474;2022-12-13T09:16:19;8.60;92.90
19389;DHT22;9830;41.876;23.474;2022-12-13T09:18:46;9.00;90.30
19389;DHT22;9830;41.876;23.474;2022-12-13T09:21:14;9.70;84.40
19389;DHT22;9830;41.876;23.474;2022-12-13T09:23:40;9.60;85.50
19389;DHT22;9830;41.876;23.474;2022-12-13T09:26:07;9.90;80.20
19389;DHT22;9830;41.876;23.474;2022-12-13T09:28:35;11.00;74.50
19389;DHT22;9830;41.876;23.474;2022-12-13T09:31:08;11.40;71.10
19389;DHT22;9830;41.876;23.474;2022-12-13T09:33:35;10.70;70.50
19389;DHT22;9830;41.876;23.474;2022-12-13T09:36:03;9.70;77.80
19389;DHT22;9830;41.876;23.474;2022-12-13T09:38:33;8.90;80.50
19389;DHT22;9830;41.876;23.474;2022-12-13T09:43:33;7.40;92.60
19389;DHT22;9830;41.876;23.474;2022-12-13T09:46:04;6.50;95.50
19389;DHT22;9830;41.876;23.474;2022-12-13T09:48:32;5.90;99.30
19389;DHT22;9830;41.876;23.474;2022-12-13T09:50:58;6.20;99.70
19389;DHT22;9830;41.876;23.474;2022-12-13T09:53:24;7.00;96.40
19389;DHT22;9830;41.876;23.474;2022-12-13T09:55:50;8.00;92.70
19389;DHT22;9830;41.876;23.474;2022-12-13T09:58:20;8.90;86.10
19389;DHT22;9830;41.876;23.474;2022-12-13T10:00:50;9.40;83.90
19389;DHT22;9830;41.876;23.474;2022-12-13T10:03:19;9.90;87.80
19389;DHT22;9830;41.876;23.474;2022-12-13T10:05:56;9.90;83.70
19389;DHT22;9830;41.876;23.474;2022-12-13T10:08:31;9.90;77.30
19389;DHT22;9830;41.876;23.474;2022-12-13T10:10:58;9.70;81.60
19389;DHT22;9830;41.876;23.474;2022-12-13T10:13:58;9.60;77.00
19389;DHT22;9830;41.876;23.474;2022-12-13T10:16:36;9.00;79.40
19389;DHT22;9830;41.876;23.474;2022-12-13T10:19:18;8.90;84.20
19389;DHT22;9830;41.876;23.474;2022-12-13T10:21:47;9.20;84.40
19389;DHT22;9830;41.876;23.474;2022-12-13T10:26:42;9.90;79.20
19389;DHT22;9830;41.876;23.474;2022-12-13T10:29:08;10.10;76.90
19389;DHT22;9830;41.876;23.474;2022-12-13T10:31:45;10.50;75.00
19389;DHT22;9830;41.876;23.474;2022-12-13T10:36:49;11.30;73.00
19389;DHT22;9830;41.876;23.474;2022-12-13T10:39:36;11.30;69.20
19389;DHT22;9830;41.876;23.474;2022-12-13T10:42:08;11.10;65.90
19389;DHT22;9830;41.876;23.474;2022-12-13T10:44:35;10.90;66.90
19389;DHT22;9830;41.876;23.474;2022-12-13T10:47:16;10.60;68.00
19389;DHT22;9830;41.876;23.474;2022-12-13T10:49:53;10.50;73.40
19389;DHT22;9830;41.876;23.474;2022-12-13T10:54:56;10.50;70.60
19389;DHT22;9830;41.876;23.474;2022-12-13T10:57:23;10.20;71.40
19389;DHT22;9830;41.876;23.474;2022-12-13T10:59:50;10.20;72.10
19389;DHT22;9830;41.876;23.474;2022-12-13T11:02:34;9.70;75.60
19389;DHT22;9830;41.876;23.474;2022-12-13T11:07:48;9.30;81.30
19389;DHT22;9830;41.876;23.474;2022-12-13T11:10:25;9.00;81.50
19389;DHT22;9830;41.876;23.474;2022-12-13T11:12:56;8.90;84.30
19389;DHT22;9830;41.876;23.474;2022-12-13T11:15:24;8.70;85.00
19389;DHT22;9830;41.876;23.474;2022-12-13T11:17:54;8.60;82.50
19389;DHT22;9830;41.876;23.474;2022-12-13T11:20:27;8.30;83.80
19389;DHT22;9830;41.876;23.474;2022-12-13T11:23:11;8.10;81.50
19389;DHT22;9830;41.876;23.474;2022-12-13T11:25:39;7.90;82.40
19389;DHT22;9830;41.876;23.474;2022-12-13T11:28:18;7.90;81.90
19389;DHT22;9830;41.876;23.474;2022-12-13T11:31:07;8.00;82.10
19389;DHT22;9830;41.876;23.474;2022-12-13T11:39:31;7.40;85.60
19389;DHT22;9830;41.876;23.474;2022-12-13T11:44:54;7.20;88.80
19389;DHT22;9830;41.876;23.474;2022-12-13T11:47:32;7.10;90.50
19389;DHT22;9830;41.876;23.474;2022-12-13T11:50:02;6.70;90.90
19389;DHT22;9830;41.876;23.474;2022-12-13T11:52:40;6.60;91.00
19389;DHT22;9830;41.876;23.474;2022-12-13T11:55:23;6.50;92.90
19389;DHT22;9830;41.876;23.474;2022-12-13T11:58:26;6.40;94.30
19389;DHT22;9830;41.876;23.474;2022-12-13T12:03:50;6.20;95.20
19389;DHT22;9830;41.876;23.474;2022-12-13T12:06:22;6.00;97.00
19389;DHT22;9830;41.876;23.474;2022-12-13T12:09:02;6.00;97.30
19389;DHT22;9830;41.876;23.474;2022-12-13T12:14:11;6.10;96.00
19389;DHT22;9830;41.876;23.474;2022-12-13T12:19:15;6.00;97.20
19389;DHT22;9830;41.876;23.474;2022-12-13T12:54:52;5.10;97.50
19389;DHT22;9830;41.876;23.474;2022-12-13T13:00:19;5.10;99.50
19389;DHT22;9830;41.876;23.474;2022-12-13T13:08:26;5.20;99.80
19389;DHT22;9830;41.876;23.474;2022-12-13T13:10:54;4.90;99.90
19389;DHT22;9830;41.876;23.474;2022-12-13T13:16:28;4.30;99.90
19389;DHT22;9830;41.876;23.474;2022-12-13T13:18:58;4.10;99.90
19389;DHT22;9830;41.876;23.474;2022-12-13T13:21:26;4.00;99.90
19389;DHT22;9830;41.876;23.474;2022-12-13T13:26:34;3.60;99.90
19389;DHT22;9830;41.876;23.474;2022-12-13T13:34:32;2.90;99.90
19389;DHT22;9830;41.876;23.474;2022-12-13T13:37:00;2.90;99.90
19389;DHT22;9830;41.876;23.474;2022-12-13T13:52:45;3.00;99.90
19389;DHT22;9830;41.876;23.474;2022-12-13T14:09:36;3.00;99.90
19389;DHT22;9830;41.876;23.474;2022-12-13T14:31:15;3.10;99.90
19389;DHT22;9830;41.876;23.474;2022-12-13T14:33:43;3.00;99.90
19389;DHT22;9830;41.876;23.474;2022-12-13T14:36:15;3.10;99.90
19389;DHT22;9830;41.876;23.474;2022-12-13T14:38:42;3.10;99.90
19389;DHT22;9830;41.876;23.474;2022-12-13T14:41:17;3.00;99.90
19389;DHT22;9830;41.876;23.474;2022-12-13T14:43:44;2.90;99.90
19389;DHT22;9830;41.876;23.474;2022-12-13T14:46:13;2.80;99.90
19389;DHT22;9830;41.876;23.474;2022-12-13T14:48:48;2.70;99.90
19389;DHT22;9830;41.876;23.474;2022-12-13T14:51:33;2.60;99.90
19389;DHT22;9830;41.876;23.474;2022-12-13T14:54:02;2.60;99.90
19389;DHT22;9830;41.876;23.474;2022-12-13T14:56:28;2.40;99.90
19389;DHT22;9830;41.876;23.474;2022-12-13T14:58:59;2.30;99.90
19389;DHT22;9830;41.876;23.474;2022-12-13T15:01:34;2.20;99.90
19389;DHT22;9830;41.876;23.474;2022-12-13T15:06:55;2.00;99.90
19389;DHT22;9830;41.876;23.474;2022-12-13T15:09:23;2.00;99.90
19389;DHT22;9830;41.876;23.474;2022-12-13T15:11:49;2.00;99.90
19389;DHT22;9830;41.876;23.474;2022-12-13T15:14:21;1.90;99.90
19389;DHT22;9830;41.876;23.474;2022-12-13T15:16:49;1.80;99.90
19389;DHT22;9830;41.876;23.474;2022-12-13T15:19:18;1.70;99.90
19389;DHT22;9830;41.876;23.474;2022-12-13T15:22:04;1.70;99.90
19389;DHT22;9830;41.876;23.474;2022-12-13T15:24:33;1.60;99.90
19389;DHT22;9830;41.876;23.474;2022-12-13T15:27:00;1.50;99.90
19389;DHT22;9830;41.876;23.474;2022-12-13T15:29:29;1.40;99.90
19389;DHT22;9830;41.876;23.474;2022-12-13T15:31:55;1.40;99.90
19389;DHT22;9830;41.876;23.474;2022-12-13T15:36:54;1.20;99.90
19389;DHT22;9830;41.876;23.474;2022-12-13T15:39:22;1.10;99.90
19389;DHT22;9830;41.876;23.474;2022-12-13T15:41:49;1.10;99.90
19389;DHT22;9830;41.876;23.474;2022-12-13T15:44:16;1.10;99.90
19389;DHT22;9830;41.876;23.474;2022-12-13T15:46:45;1.10;99.90
19389;DHT22;9830;41.876;23.474;2022-12-13T15:49:36;1.20;99.90
19389;DHT22;9830;41.876;23.474;2022-12-13T15:52:06;1.30;99.90
19389;DHT22;9830;41.876;23.474;2022-12-13T16:00:33;1.50;99.90
19389;DHT22;9830;41.876;23.474;2022-12-13T16:03:14;1.60;99.90
19389;DHT22;9830;41.876;23.474;2022-12-13T16:05:48;1.60;99.90
19389;DHT22;9830;41.876;23.474;2022-12-13T16:08:36;1.50;99.90
19389;DHT22;9830;41.876;23.474;2022-12-13T16:11:03;1.50;99.90
19389;DHT22;9830;41.876;23.474;2022-12-13T16:13:31;1.50;99.90
19389;DHT22;9830;41.876;23.474;2022-12-13T16:16:01;1.50;99.90
19389;DHT22;9830;41.876;23.474;2022-12-13T16:18:50;1.50;99.90
19389;DHT22;9830;41.876;23.474;2022-12-13T16:21:16;1.50;99.90
19389;DHT22;9830;41.876;23.474;2022-12-13T16:23:42;1.50;99.90
19389;DHT22;9830;41.876;23.474;2022-12-13T16:26:12;1.50;99.90
19389;DHT22;9830;41.876;23.474;2022-12-13T16:28:38;1.50;99.90
19389;DHT22;9830;41.876;23.474;2022-12-13T16:31:22;1.50;99.90
19389;DHT22;9830;41.876;23.474;2022-12-13T16:33:48;1.60;99.90
19389;DHT22;9830;41.876;23.474;2022-12-13T16:36:14;1.70;99.90
19389;DHT22;9830;41.876;23.474;2022-12-13T16:38:40;1.70;99.90
19389;DHT22;9830;41.876;23.474;2022-12-13T16:41:06;1.90;99.90
19389;DHT22;9830;41.876;23.474;2022-12-13T16:43:34;1.90;99.90
19389;DHT22;9830;41.876;23.474;2022-12-13T16:46:03;2.00;99.90
19389;DHT22;9830;41.876;23.474;2022-12-13T16:48:29;2.10;99.90
19389;DHT22;9830;41.876;23.474;2022-12-13T16:50:55;2.10;99.90
19389;DHT22;9830;41.876;23.474;2022-12-13T16:53:21;2.10;99.90
19389;DHT22;9830;41.876;23.474;2022-12-13T16:55:47;2.10;99.90
19389;DHT22;9830;41.876;23.474;2022-12-13T16:58:16;2.10;99.90
19389;DHT22;9830;41.876;23.474;2022-12-13T17:00:43;2.00;99.90
19389;DHT22;9830;41.876;23.474;2022-12-13T17:03:12;1.90;99.90
19389;DHT22;9830;41.876;23.474;2022-12-13T17:05:39;1.80;99.90
19389;DHT22;9830;41.876;23.474;2022-12-13T17:08:05;1.70;99.90
19389;DHT22;9830;41.876;23.474;2022-12-13T17:10:31;1.60;99.90
19389;DHT22;9830;41.876;23.474;2022-12-13T17:12:57;1.60;99.90
19389;DHT22;9830;41.876;23.474;2022-12-13T17:15:23;1.70;99.90
19389;DHT22;9830;41.876;23.474;2022-12-13T17:17:48;1.60;99.90
19389;DHT22;9830;41.876;23.474;2022-12-13T17:20:16;1.60;99.90
19389;DHT22;9830;41.876;23.474;2022-12-13T17:22:45;1.60;99.90
19389;DHT22;9830;41.876;23.474;2022-12-13T17:25:11;1.60;99.90
19389;DHT22;9830;41.876;23.474;2022-12-13T17:27:37;1.60;99.90
19389;DHT22;9830;41.876;23.474;2022-12-13T17:30:04;1.70;99.90
19389;DHT22;9830;41.876;23.474;2022-12-13T17:32:33;1.60;99.90
19389;DHT22;9830;41.876;23.474;2022-12-13T17:34:58;1.60;99.90
19389;DHT22;9830;41.876;23.474;2022-12-13T17:37:24;1.70;99.90
19389;DHT22;9830;41.876;23.474;2022-12-13T17:39:50;1.70;99.90
19389;DHT22;9830;41.876;23.474;2022-12-13T17:42:15;1.70;99.90
19389;DHT22;9830;41.876;23.474;2022-12-13T17:44:41;1.60;99.90
19389;DHT22;9830;41.876;23.474;2022-12-13T17:47:08;1.60;99.90
19389;DHT22;9830;41.876;23.474;2022-12-13T17:49:34;1.60;99.90
19389;DHT22;9830;41.876;23.474;2022-12-13T17:52:00;1.70;99.90
19389;DHT22;9830;41.876;23.474;2022-12-13T17:54:26;1.70;99.90
19389;DHT22;9830;41.876;23.474;2022-12-13T17:56:53;1.70;99.90
19389;DHT22;9830;41.876;23.474;2022-12-13T17:59:19;1.80;99.90
19389;DHT22;9830;41.876;23.474;2022-12-13T18:01:45;1.70;99.90
19389;DHT22;9830;41.876;23.474;2022-12-13T18:04:11;1.70;99.90
19389;DHT22;9830;41.876;23.474;2022-12-13T18:06:38;1.70;99.90
19389;DHT22;9830;41.876;23.474;2022-12-13T18:09:04;1.70;99.90
19389;DHT22;9830;41.876;23.474;2022-12-13T18:11:30;1.70;99.90
19389;DHT22;9830;41.876;23.474;2022-12-13T18:13:56;1.70;99.90
19389;DHT22;9830;41.876;23.474;2022-12-13T18:16:23;1.80;99.90
19389;DHT22;9830;41.876;23.474;2022-12-13T18:18:49;1.80;99.90
19389;DHT22;9830;41.876;23.474;2022-12-13T18:21:17;1.80;99.90
19389;DHT22;9830;41.876;23.474;2022-12-13T18:23:43;1.80;99.90
19389;DHT22;9830;41.876;23.474;2022-12-13T18:26:16;1.80;99.90
19389;DHT22;9830;41.876;23.474;2022-12-13T18:28:42;1.80;99.90
19389;DHT22;9830;41.876;23.474;2022-12-13T18:31:12;1.80;99.90
19389;DHT22;9830;41.876;23.474;2022-12-13T18:33:39;1.80;99.90